Аэропорт: Толмачёво. Новосибирск

ICAO: UNNT

METAR:
2019-07-23 18:30:00
UNNT 231830Z 28001MPS 3100 BR FU BKN034 12/11 Q1003 R07/090070 R34/090070 NOSIG RMK QFE743/0990
METAR:
2019-07-23 17:00:00
TAF UNNT 231700Z 2318/2418 32003G08MPS 3000 FU BR BKN030 TEMPO 2318/2403 0300 FG BKN002 BECMG 2403/2406 9999 NSW BKN020CB